createdAt,value
2018-11-05T00:00:38.717Z,12.30
2018-11-05T00:05:34.013Z,12.30
2018-11-05T00:10:27.997Z,12.13
2018-11-05T00:15:21.285Z,12.15
2018-11-05T00:20:14.563Z,12.33
2018-11-05T00:25:10.871Z,12.20
2018-11-05T00:30:04.415Z,11.08
2018-11-05T00:34:57.759Z,10.48
2018-11-05T00:39:51.042Z,12.33
2018-11-05T00:44:44.304Z,12.82
2018-11-05T00:49:37.576Z,10.68
2018-11-05T00:54:30.799Z,14.23
2018-11-05T00:59:24.111Z,12.33
2018-11-05T01:04:17.406Z,15.35
2018-11-05T01:09:10.619Z,11.35
2018-11-05T01:14:04.404Z,11.73
2018-11-05T01:18:57.649Z,11.95
2018-11-05T01:23:50.981Z,14.68
2018-11-05T01:28:44.269Z,11.48
2018-11-05T01:33:38.375Z,14.45
2018-11-05T01:38:32.275Z,13.28
2018-11-05T01:43:26.170Z,12.95
2018-11-05T01:48:19.945Z,12.30
2018-11-05T01:53:13.216Z,13.03
2018-11-05T01:58:06.757Z,14.15
2018-11-05T02:03:00.020Z,13.10
2018-11-05T02:07:53.313Z,12.82
2018-11-05T02:12:46.629Z,12.37
2018-11-05T02:17:41.414Z,12.73
2018-11-05T02:22:34.945Z,13.83
2018-11-05T02:27:28.623Z,15.10
2018-11-05T02:32:21.862Z,13.78
2018-11-05T02:37:15.124Z,12.50
2018-11-05T02:42:08.401Z,12.18
2018-11-05T02:47:01.707Z,12.88
2018-11-05T02:51:55.747Z,12.70
2018-11-05T02:56:49.007Z,15.88
2018-11-05T03:01:42.287Z,17.50
2018-11-05T03:06:35.588Z,15.70
2018-11-05T03:11:28.843Z,13.32
2018-11-05T03:16:22.647Z,15.32
2018-11-05T03:21:15.872Z,13.68
2018-11-05T03:26:09.288Z,13.78
2018-11-05T03:31:02.539Z,15.48
2018-11-05T03:35:55.884Z,15.70
2018-11-05T03:40:49.168Z,13.65
2018-11-05T03:45:42.491Z,15.63
2018-11-05T03:50:35.744Z,17.57
2018-11-05T03:55:29.185Z,14.80
2018-11-05T04:00:22.395Z,12.18
2018-11-05T04:05:15.663Z,13.93
2018-11-05T04:10:10.413Z,15.20
2018-11-05T04:15:03.953Z,12.45
2018-11-05T04:19:57.252Z,13.35
2018-11-05T04:24:50.515Z,12.82
2018-11-05T04:29:43.828Z,14.15
2018-11-05T04:34:37.109Z,13.35
2018-11-05T04:39:30.343Z,14.18
2018-11-05T04:44:23.602Z,13.62
2018-11-05T04:49:16.893Z,12.58
2018-11-05T04:54:10.158Z,12.25
2018-11-05T04:59:03.599Z,15.10
2018-11-05T05:03:56.893Z,14.58
2018-11-05T05:08:50.154Z,13.62
2018-11-05T05:13:43.453Z,14.28
2018-11-05T05:18:36.841Z,14.47
2018-11-05T05:23:30.106Z,14.98
2018-11-05T05:28:24.033Z,15.38
2018-11-05T05:33:17.346Z,14.33
2018-11-05T05:38:10.679Z,14.20
2018-11-05T05:43:04.225Z,15.23
2018-11-05T05:47:57.989Z,15.75
2018-11-05T05:52:51.240Z,15.35
2018-11-05T05:57:45.123Z,17.27
2018-11-05T06:02:38.743Z,17.80
2018-11-05T06:07:32.153Z,18.07
2018-11-05T06:12:25.445Z,16.62
2018-11-05T06:17:18.714Z,16.85
2018-11-05T06:22:12.062Z,17.92
2018-11-05T06:27:05.445Z,16.97
2018-11-05T06:31:58.713Z,16.75
2018-11-05T06:36:51.985Z,18.02
2018-11-05T06:41:46.298Z,18.45
2018-11-05T06:46:39.545Z,18.67
2018-11-05T06:51:32.819Z,17.17
2018-11-05T06:56:26.062Z,17.92
2018-11-05T07:01:19.353Z,19.90
2018-11-05T07:06:12.662Z,17.43
2018-11-05T07:11:05.920Z,18.12
2018-11-05T07:15:59.174Z,20.30
2018-11-05T07:20:52.395Z,16.67
2018-11-05T07:25:45.824Z,15.32
2018-11-05T07:30:39.132Z,18.92
2018-11-05T07:35:32.411Z,19.82
2018-11-05T07:40:25.675Z,16.85
2018-11-05T07:45:20.262Z,18.77
2018-11-05T07:50:14.926Z,18.42
2018-11-05T07:55:11.288Z,19.27
2018-11-05T08:00:13.523Z,19.75
2018-11-05T08:05:07.049Z,18.57
2018-11-05T08:10:00.302Z,18.50
2018-11-05T08:14:53.689Z,22.02
2018-11-05T08:19:47.026Z,18.45
2018-11-05T08:24:40.291Z,19.50
2018-11-05T08:29:33.575Z,19.15
2018-11-05T08:34:26.941Z,22.82
2018-11-05T08:39:20.169Z,19.80
2018-11-05T08:44:13.514Z,18.98
2018-11-05T08:49:07.043Z,19.85
2018-11-05T08:54:00.593Z,21.25
2018-11-05T08:58:53.865Z,25.32
2018-11-05T09:03:49.137Z,20.62
2018-11-05T09:08:42.741Z,20.25
2018-11-05T09:13:36.043Z,19.02
2018-11-05T09:18:29.408Z,18.55
2018-11-05T09:23:22.892Z,20.25
2018-11-05T09:28:16.234Z,21.30
2018-11-05T09:33:09.529Z,21.15
2018-11-05T09:38:02.977Z,19.50
2018-11-05T09:42:56.482Z,17.45
2018-11-05T09:47:49.754Z,17.57
2018-11-05T09:52:43.185Z,21.70
2018-11-05T09:57:36.561Z,18.20
2018-11-05T10:02:35.558Z,20.27
2018-11-05T10:07:28.806Z,17.75
2018-11-05T10:12:22.264Z,22.80
2018-11-05T10:17:15.515Z,17.75
2018-11-05T10:22:08.851Z,17.73
2018-11-05T10:27:02.296Z,17.82
2018-11-05T10:31:55.568Z,18.17
2018-11-05T10:36:50.485Z,16.73
2018-11-05T10:41:43.822Z,20.55
2018-11-05T10:46:37.437Z,19.45
2018-11-05T10:51:30.815Z,20.25
2018-11-05T10:56:24.115Z,20.52
2018-11-05T11:01:22.064Z,21.05
2018-11-05T11:06:15.364Z,18.65
2018-11-05T11:11:08.835Z,18.17
2018-11-05T11:16:02.157Z,18.20
2018-11-05T11:20:55.377Z,18.20
2018-11-05T11:25:48.722Z,18.85
2018-11-05T11:30:42.148Z,21.23
2018-11-05T11:35:35.421Z,19.92
2018-11-05T11:40:28.772Z,21.25
2018-11-05T11:45:22.770Z,19.85
2018-11-05T11:50:16.784Z,18.02
2018-11-05T11:55:12.709Z,19.05
2018-11-05T12:00:11.791Z,17.48
2018-11-05T12:05:06.686Z,21.23
2018-11-05T12:09:59.922Z,25.32
2018-11-05T12:14:53.425Z,19.05
2018-11-05T12:19:46.631Z,19.42
2018-11-05T12:24:39.911Z,19.40
2018-11-05T12:29:33.270Z,21.97
2018-11-05T12:34:26.542Z,15.25
2018-11-05T12:39:19.783Z,18.87
2018-11-05T12:44:13.217Z,16.67
2018-11-05T12:49:06.535Z,20.70
2018-11-05T12:53:59.870Z,20.92
2018-11-05T12:58:53.282Z,27.70
2018-11-05T13:03:46.677Z,19.70
2018-11-05T13:08:39.915Z,16.42
2018-11-05T13:13:33.975Z,17.32
2018-11-05T13:18:27.310Z,16.27
2018-11-05T13:23:27.296Z,23.40
2018-11-05T13:28:20.629Z,15.85
2018-11-05T13:33:13.855Z,19.27
2018-11-05T13:38:07.648Z,17.32
2018-11-05T13:43:00.420Z,17.23
2018-11-05T13:47:54.817Z,17.03
2018-11-05T13:52:47.021Z,15.95
2018-11-05T13:57:41.071Z,16.07
2018-11-05T14:02:34.278Z,18.77
2018-11-05T14:07:34.673Z,16.62
2018-11-05T14:12:27.966Z,14.60
2018-11-05T14:17:21.258Z,16.97
2018-11-05T14:22:14.569Z,14.47
2018-11-05T14:27:07.885Z,17.02
2018-11-05T14:32:01.285Z,14.55
2018-11-05T14:36:54.633Z,16.17
2018-11-05T14:41:47.813Z,16.48
2018-11-05T14:46:41.174Z,18.02
2018-11-05T14:51:34.785Z,16.20
2018-11-05T14:56:28.053Z,16.00
2018-11-05T15:01:21.320Z,17.20
2018-11-05T15:06:14.633Z,17.03
2018-11-05T15:11:07.972Z,14.85
2018-11-05T15:16:01.280Z,15.93
2018-11-05T15:20:54.575Z,18.62
2018-11-05T15:25:47.908Z,18.15
2018-11-05T15:30:41.455Z,18.23
2018-11-05T15:35:34.764Z,15.68
2018-11-05T15:40:28.061Z,17.65
2018-11-05T15:45:21.919Z,18.95
2018-11-05T15:50:16.436Z,17.12
2018-11-05T15:55:10.050Z,17.32
2018-11-05T16:00:04.212Z,15.58
2018-11-05T16:04:57.460Z,21.53
2018-11-05T16:09:50.781Z,18.80
2018-11-05T16:14:44.205Z,54.38
2018-11-05T16:19:37.506Z,22.90
2018-11-05T16:24:30.876Z,25.35
2018-11-05T16:29:24.097Z,21.33
2018-11-05T16:34:17.365Z,24.02
2018-11-05T16:39:12.331Z,21.07
2018-11-05T16:44:06.726Z,21.68
2018-11-05T16:49:00.013Z,19.82
2018-11-05T16:53:54.827Z,19.25
2018-11-05T16:58:48.349Z,23.77
2018-11-05T17:03:41.917Z,22.42
2018-11-05T17:08:36.559Z,21.17
2018-11-05T17:13:29.914Z,23.90
2018-11-05T17:18:23.671Z,23.52
2018-11-05T17:23:17.029Z,21.53
2018-11-05T17:28:10.333Z,27.15
2018-11-05T17:33:03.614Z,25.48
2018-11-05T17:37:56.871Z,22.85
2018-11-05T17:42:50.175Z,22.62
2018-11-05T17:47:43.747Z,25.37
2018-11-05T17:52:37.103Z,25.17
2018-11-05T17:57:30.409Z,21.95
2018-11-05T18:02:24.832Z,23.22
2018-11-05T18:07:18.193Z,27.73
2018-11-05T18:12:11.569Z,22.32
2018-11-05T18:17:05.476Z,24.52
2018-11-05T18:21:58.845Z,23.15
2018-11-05T18:26:52.131Z,22.20
2018-11-05T18:31:45.420Z,22.80
2018-11-05T18:36:38.684Z,23.62
2018-11-05T18:41:31.930Z,22.87
2018-11-05T18:46:25.225Z,25.08
2018-11-05T18:51:18.515Z,22.27
2018-11-05T18:56:11.842Z,23.83
2018-11-05T19:01:05.148Z,22.15
2018-11-05T19:05:58.548Z,25.97
2018-11-05T19:10:52.003Z,23.27
2018-11-05T19:15:45.438Z,26.20
2018-11-05T19:20:38.781Z,35.03
2018-11-05T19:25:33.225Z,27.87
2018-11-05T19:30:27.411Z,33.65
2018-11-05T19:35:20.614Z,33.88
2018-11-05T19:40:14.753Z,31.87
2018-11-05T19:45:10.957Z,35.40
2018-11-05T19:50:06.108Z,31.80
2018-11-05T19:54:59.328Z,31.62
2018-11-05T19:59:52.633Z,31.15
2018-11-05T20:04:45.936Z,27.37
2018-11-05T20:09:39.256Z,24.40
2018-11-05T20:14:32.625Z,26.37
2018-11-05T20:19:25.993Z,27.07
2018-11-05T20:24:19.357Z,26.17
2018-11-05T20:29:12.645Z,25.43
2018-11-05T20:34:06.090Z,25.12
2018-11-05T20:38:59.245Z,27.48
2018-11-05T20:43:52.545Z,29.82
2018-11-05T20:48:45.795Z,27.35
2018-11-05T20:53:39.077Z,26.20
2018-11-05T20:58:32.345Z,27.40
2018-11-05T21:03:27.141Z,24.95
2018-11-05T21:08:20.513Z,29.92
2018-11-05T21:13:13.899Z,26.10
2018-11-05T21:18:07.295Z,26.50
2018-11-05T21:23:00.554Z,28.95
2018-11-05T21:27:53.822Z,27.02
2018-11-05T21:32:47.175Z,25.85
2018-11-05T21:37:40.735Z,22.60
2018-11-05T21:42:33.947Z,25.08
2018-11-05T21:47:27.300Z,26.95
2018-11-05T21:52:20.570Z,22.82
2018-11-05T21:57:13.823Z,33.60
2018-11-05T22:02:07.138Z,23.50
2018-11-05T22:07:00.424Z,28.65
2018-11-05T22:11:53.714Z,26.40
2018-11-05T22:16:46.972Z,28.00
2018-11-05T22:21:40.284Z,27.98
2018-11-05T22:26:33.550Z,29.00
2018-11-05T22:31:26.918Z,28.47
2018-11-05T22:36:20.275Z,27.98
2018-11-05T22:41:13.564Z,26.73
2018-11-05T22:46:06.911Z,26.33
2018-11-05T22:51:00.161Z,28.27
2018-11-05T22:55:53.435Z,26.27
2018-11-05T23:00:52.374Z,28.40
2018-11-05T23:05:45.767Z,27.45
2018-11-05T23:10:39.067Z,27.05
2018-11-05T23:15:33.499Z,30.32
2018-11-05T23:20:26.787Z,28.38
2018-11-05T23:25:20.079Z,30.35
2018-11-05T23:30:13.645Z,30.90
2018-11-05T23:35:07.835Z,30.85
2018-11-05T23:40:01.115Z,27.13
2018-11-05T23:44:54.393Z,28.70
2018-11-05T23:49:47.671Z,26.62
2018-11-05T23:54:40.944Z,25.43
2018-11-05T23:59:34.222Z,27.73
